Jadranovo, Croatia

8:45 AM CET on February 13, 2016 (GMT +0100)
Ruzic selo | | Change Station
CLOSE
Current Station
Personal Weather Station
Location: Hreljin, PRIMORJE-GORSKI KOTAR COUNTY
Elevation: 1175 ft
Nearby Weather Stations

Elev 1175 ft 45.28 °N, 14.61 °E | Updated 9 seconds ago

Mostly Cloudy
Mostly Cloudy
39.9 °F
Feels Like 37 °F
N
4.6
Wind Variable Wind from NNE
Gusts 4.6 mph

Today
High -- | Low -- °F
--% Chance of Precip.
Yesterday
High -- | Low -- °F
Precip. -- in
Pressure 29.39 in
Visibility 6.2 miles
Clouds Few 1300 ft
Scattered Clouds 3000 ft
Mostly Cloudy 4300 ft
Windchill 37 °F
Dew Point 37 °F
Humidity 90%
Rainfall 0.68 in
Snow Depth Not available.
7:06 AM 5:25 PM
Waxing Crescent, 28% visible
METAR LDRI 130730Z 30007KT 9999 FEW013 SCT030 BKN043 08/04 Q0995
Pressure 29.39 in
Visibility 6.2 miles
Clouds Few 1300 ft
Scattered Clouds 3000 ft
Mostly Cloudy 4300 ft
Windchill 37 °F
Dew Point 37 °F
Humidity 90%
Rainfall 0.68 in
Snow Depth Not available.
7:06 AM 5:25 PM
Waxing Crescent, 28% visible
METAR LDRI 130730Z 30007KT 9999 FEW013 SCT030 BKN043 08/04 Q0995

10-Day Weather Forecast

Almanac

Astronomy

Feb. 13, 2016 Rise Set
Actual Time
Civil Twilight
Nautical Twilight
Astronomical Twilight
Moon
Length of Visible Light
Length of Day
Tomorrow will be .
, % of the Moon is Illuminated

Today's Extremes

Country Highs Country Lows

Community

WunderPhotos

Upload Photos

1,892,526 photos uploaded!

WunderBlog® & News

Nearby

Air Quality

  Air Quality AQ Index Pollutant
Not available.

Snow Depth

Station Depth Elevation

Earthquake Activity

City Distance Mag. Time & Date
Minimum magnitude displayed is 2.5.

Coastal Water Temperatures

Place Temperature

Stations

Nearby Weather Stations

Station Location Temp. Windchill Dew Point Humidity Wind Precip. Elev Updated Type